sensor_id;sensor_type;location;lat;lon;timestamp;pressure;altitude;pressure_sealevel;temperature;humidity
70758;BME280;59316;52.964;7.102;2023-03-05T00:00:53;102029.97;;;3.46;100.00
70758;BME280;59316;52.964;7.102;2023-03-05T00:06:15;102028.94;;;3.61;100.00
70758;BME280;59316;52.964;7.102;2023-03-05T00:11:36;102026.28;;;3.66;100.00
70758;BME280;59316;52.964;7.102;2023-03-05T00:16:58;102026.25;;;3.71;100.00
70758;BME280;59316;52.964;7.102;2023-03-05T00:22:19;102014.03;;;3.79;100.00
70758;BME280;59316;52.964;7.102;2023-03-05T00:27:41;102007.31;;;3.67;100.00
70758;BME280;59316;52.964;7.102;2023-03-05T00:33:03;102007.34;;;3.64;100.00
70758;BME280;59316;52.964;7.102;2023-03-05T00:38:24;101999.47;;;3.73;100.00
70758;BME280;59316;52.964;7.102;2023-03-05T00:43:46;101981.56;;;3.58;100.00
70758;BME280;59316;52.964;7.102;2023-03-05T00:49:07;101986.91;;;3.42;100.00
70758;BME280;59316;52.964;7.102;2023-03-05T00:54:29;101980.09;;;3.35;100.00
70758;BME280;59316;52.964;7.102;2023-03-05T00:59:50;101976.00;;;3.16;100.00
70758;BME280;59316;52.964;7.102;2023-03-05T01:05:13;101976.00;;;3.12;100.00
70758;BME280;59316;52.964;7.102;2023-03-05T01:10:34;101960.50;;;3.14;100.00
70758;BME280;59316;52.964;7.102;2023-03-05T01:15:56;101955.41;;;3.05;100.00
70758;BME280;59316;52.964;7.102;2023-03-05T01:21:20;101948.56;;;3.04;100.00
70758;BME280;59316;52.964;7.102;2023-03-05T01:26:41;101951.34;;;2.80;100.00
70758;BME280;59316;52.964;7.102;2023-03-05T01:32:02;101940.28;;;2.66;100.00
70758;BME280;59316;52.964;7.102;2023-03-05T01:37:25;101936.84;;;2.67;100.00
70758;BME280;59316;52.964;7.102;2023-03-05T01:42:47;101935.94;;;2.74;100.00
70758;BME280;59316;52.964;7.102;2023-03-05T01:48:15;101922.84;;;2.88;100.00
70758;BME280;59316;52.964;7.102;2023-03-05T01:53:36;101914.09;;;3.02;100.00
70758;BME280;59316;52.964;7.102;2023-03-05T01:58:59;101913.13;;;3.12;100.00
70758;BME280;59316;52.964;7.102;2023-03-05T02:04:26;101909.56;;;3.22;100.00
70758;BME280;59316;52.964;7.102;2023-03-05T02:09:52;101916.22;;;3.40;100.00
70758;BME280;59316;52.964;7.102;2023-03-05T02:15:13;101899.81;;;3.43;100.00
70758;BME280;59316;52.964;7.102;2023-03-05T02:21:05;101898.25;;;3.31;100.00
70758;BME280;59316;52.964;7.102;2023-03-05T02:26:26;101879.41;;;3.21;100.00
70758;BME280;59316;52.964;7.102;2023-03-05T02:31:48;101870.72;;;3.27;100.00
70758;BME280;59316;52.964;7.102;2023-03-05T02:37:09;101871.69;;;3.18;100.00
70758;BME280;59316;52.964;7.102;2023-03-05T02:42:31;101864.72;;;3.25;100.00
70758;BME280;59316;52.964;7.102;2023-03-05T02:47:53;101865.50;;;3.30;100.00
70758;BME280;59316;52.964;7.102;2023-03-05T02:53:15;101861.16;;;3.34;100.00
70758;BME280;59316;52.964;7.102;2023-03-05T02:58:37;101842.19;;;3.35;100.00
70758;BME280;59316;52.964;7.102;2023-03-05T03:03:58;101828.34;;;3.39;100.00
70758;BME280;59316;52.964;7.102;2023-03-05T03:09:20;101828.38;;;3.36;100.00
70758;BME280;59316;52.964;7.102;2023-03-05T03:14:41;101813.03;;;3.23;100.00
70758;BME280;59316;52.964;7.102;2023-03-05T03:20:05;101813.13;;;3.16;100.00
70758;BME280;59316;52.964;7.102;2023-03-05T03:25:28;101806.44;;;3.01;100.00
70758;BME280;59316;52.964;7.102;2023-03-05T03:30:50;101806.75;;;2.76;100.00
70758;BME280;59316;52.964;7.102;2023-03-05T03:36:12;101797.63;;;2.41;100.00
70758;BME280;59316;52.964;7.102;2023-03-05T03:41:34;101785.84;;;2.18;100.00
70758;BME280;59316;52.964;7.102;2023-03-05T03:47:02;101781.56;;;2.15;100.00
70758;BME280;59316;52.964;7.102;2023-03-05T03:52:24;101775.25;;;2.43;100.00
70758;BME280;59316;52.964;7.102;2023-03-05T03:57:46;101776.75;;;2.62;100.00
70758;BME280;59316;52.964;7.102;2023-03-05T04:03:08;101774.72;;;2.88;100.00
70758;BME280;59316;52.964;7.102;2023-03-05T04:08:29;101777.16;;;3.00;100.00
70758;BME280;59316;52.964;7.102;2023-03-05T04:13:50;101764.28;;;2.95;100.00
70758;BME280;59316;52.964;7.102;2023-03-05T04:19:13;101760.75;;;3.03;100.00
70758;BME280;59316;52.964;7.102;2023-03-05T04:24:34;101753.06;;;2.98;100.00
70758;BME280;59316;52.964;7.102;2023-03-05T04:29:55;101745.56;;;2.79;100.00
70758;BME280;59316;52.964;7.102;2023-03-05T04:35:17;101739.50;;;2.80;100.00
70758;BME280;59316;52.964;7.102;2023-03-05T04:40:39;101741.41;;;2.66;100.00
70758;BME280;59316;52.964;7.102;2023-03-05T04:46:00;101744.84;;;2.68;100.00
70758;BME280;59316;52.964;7.102;2023-03-05T04:51:22;101739.53;;;2.79;100.00
70758;BME280;59316;52.964;7.102;2023-03-05T04:56:43;101735.06;;;2.93;100.00
70758;BME280;59316;52.964;7.102;2023-03-05T05:02:04;101726.41;;;2.96;100.00
70758;BME280;59316;52.964;7.102;2023-03-05T05:07:26;101725.59;;;2.89;100.00
70758;BME280;59316;52.964;7.102;2023-03-05T05:12:47;101722.97;;;2.94;100.00
70758;BME280;59316;52.964;7.102;2023-03-05T05:18:08;101725.41;;;3.03;100.00
70758;BME280;59316;52.964;7.102;2023-03-05T05:23:30;101722.00;;;3.03;100.00
70758;BME280;59316;52.964;7.102;2023-03-05T05:28:51;101714.47;;;2.84;100.00
70758;BME280;59316;52.964;7.102;2023-03-05T05:34:13;101711.16;;;2.76;100.00
70758;BME280;59316;52.964;7.102;2023-03-05T05:39:35;101711.16;;;2.76;100.00
70758;BME280;59316;52.964;7.102;2023-03-05T05:44:56;101705.22;;;2.68;100.00
70758;BME280;59316;52.964;7.102;2023-03-05T05:50:20;101707.81;;;2.69;100.00
70758;BME280;59316;52.964;7.102;2023-03-05T05:55:41;101711.34;;;2.59;100.00
70758;BME280;59316;52.964;7.102;2023-03-05T06:01:11;101706.34;;;2.48;100.00
70758;BME280;59316;52.964;7.102;2023-03-05T06:06:34;101712.44;;;2.41;100.00
70758;BME280;59316;52.964;7.102;2023-03-05T06:11:56;101711.72;;;2.31;100.00
70758;BME280;59316;52.964;7.102;2023-03-05T06:17:18;101709.09;;;2.32;100.00
70758;BME280;59316;52.964;7.102;2023-03-05T06:22:49;101701.25;;;2.40;100.00
70758;BME280;59316;52.964;7.102;2023-03-05T06:28:10;101696.06;;;2.42;100.00
70758;BME280;59316;52.964;7.102;2023-03-05T06:33:33;101698.66;;;2.45;100.00
70758;BME280;59316;52.964;7.102;2023-03-05T06:38:55;101687.41;;;2.49;100.00
70758;BME280;59316;52.964;7.102;2023-03-05T06:44:17;101690.88;;;2.46;100.00
70758;BME280;59316;52.964;7.102;2023-03-05T06:49:39;101688.41;;;2.36;100.00
70758;BME280;59316;52.964;7.102;2023-03-05T06:55:00;101686.53;;;2.48;100.00
70758;BME280;59316;52.964;7.102;2023-03-05T07:00:21;101679.63;;;2.51;100.00
70758;BME280;59316;52.964;7.102;2023-03-05T07:05:43;101680.38;;;2.60;100.00
70758;BME280;59316;52.964;7.102;2023-03-05T07:11:12;101677.75;;;2.62;100.00
70758;BME280;59316;52.964;7.102;2023-03-05T07:16:35;101677.63;;;2.71;100.00
70758;BME280;59316;52.964;7.102;2023-03-05T07:21:56;101671.53;;;2.75;100.00
70758;BME280;59316;52.964;7.102;2023-03-05T07:27:17;101672.22;;;2.88;100.00
70758;BME280;59316;52.964;7.102;2023-03-05T07:32:39;101671.06;;;3.09;100.00
70758;BME280;59316;52.964;7.102;2023-03-05T07:38:01;101678.72;;;3.16;100.00
70758;BME280;59316;52.964;7.102;2023-03-05T07:43:22;101657.91;;;3.23;100.00
70758;BME280;59316;52.964;7.102;2023-03-05T07:48:44;101665.19;;;3.53;100.00
70758;BME280;59316;52.964;7.102;2023-03-05T07:54:05;101666.47;;;3.78;100.00
70758;BME280;59316;52.964;7.102;2023-03-05T07:59:26;101671.03;;;4.12;100.00
70758;BME280;59316;52.964;7.102;2023-03-05T08:04:48;101656.22;;;4.60;100.00
70758;BME280;59316;52.964;7.102;2023-03-05T08:10:10;101651.75;;;4.67;100.00
70758;BME280;59316;52.964;7.102;2023-03-05T08:15:31;101649.44;;;4.93;100.00
70758;BME280;59316;52.964;7.102;2023-03-05T08:20:52;101646.31;;;5.84;100.00
70758;BME280;59316;52.964;7.102;2023-03-05T08:26:16;101636.03;;;5.81;100.00
70758;BME280;59316;52.964;7.102;2023-03-05T08:31:44;101642.63;;;5.93;100.00
70758;BME280;59316;52.964;7.102;2023-03-05T08:37:05;101631.31;;;6.25;100.00
70758;BME280;59316;52.964;7.102;2023-03-05T08:42:27;101635.06;;;6.15;100.00
70758;BME280;59316;52.964;7.102;2023-03-05T08:47:48;101635.66;;;6.25;100.00
70758;BME280;59316;52.964;7.102;2023-03-05T08:53:10;101624.16;;;6.34;100.00
70758;BME280;59316;52.964;7.102;2023-03-05T08:58:31;101620.28;;;6.47;100.00
70758;BME280;59316;52.964;7.102;2023-03-05T09:03:53;101609.38;;;6.91;100.00
70758;BME280;59316;52.964;7.102;2023-03-05T09:09:14;101609.50;;;7.15;100.00
70758;BME280;59316;52.964;7.102;2023-03-05T09:14:36;101612.41;;;7.05;100.00
70758;BME280;59316;52.964;7.102;2023-03-05T09:19:57;101603.47;;;7.14;100.00
70758;BME280;59316;52.964;7.102;2023-03-05T09:25:19;101610.84;;;7.27;100.00
70758;BME280;59316;52.964;7.102;2023-03-05T09:30:40;101602.91;;;7.80;100.00
70758;BME280;59316;52.964;7.102;2023-03-05T09:36:04;101590.28;;;7.95;100.00
70758;BME280;59316;52.964;7.102;2023-03-05T10:05:30;101571.06;;;7.48;100.00
70758;BME280;59316;52.964;7.102;2023-03-05T10:40:55;101538.69;;;7.32;100.00
70758;BME280;59316;52.964;7.102;2023-03-05T10:46:19;101537.72;;;7.34;100.00
70758;BME280;59316;52.964;7.102;2023-03-05T10:51:51;101535.69;;;7.68;100.00
70758;BME280;59316;52.964;7.102;2023-03-05T10:57:26;101514.59;;;9.07;100.00
70758;BME280;59316;52.964;7.102;2023-03-05T11:08:32;101494.53;;;10.25;100.00
70758;BME280;59316;52.964;7.102;2023-03-05T11:13:59;101515.66;;;7.21;100.00
70758;BME280;59316;52.964;7.102;2023-03-05T11:19:32;101518.28;;;5.52;100.00
70758;BME280;59316;52.964;7.102;2023-03-05T11:25:15;101501.38;;;5.69;100.00
70758;BME280;59316;52.964;7.102;2023-03-05T11:30:38;101490.84;;;6.32;100.00
70758;BME280;59316;52.964;7.102;2023-03-05T11:36:36;101471.41;;;8.16;100.00
70758;BME280;59316;52.964;7.102;2023-03-05T11:42:10;101445.88;;;8.67;100.00
70758;BME280;59316;52.964;7.102;2023-03-05T11:47:41;101434.00;;;9.01;100.00
70758;BME280;59316;52.964;7.102;2023-03-05T11:53:19;101424.16;;;9.08;100.00
70758;BME280;59316;52.964;7.102;2023-03-05T11:58:49;101410.53;;;9.01;100.00
70758;BME280;59316;52.964;7.102;2023-03-05T12:04:23;101401.16;;;9.54;100.00
70758;BME280;59316;52.964;7.102;2023-03-05T12:09:47;101392.00;;;9.45;100.00
70758;BME280;59316;52.964;7.102;2023-03-05T12:43:30;101349.66;;;9.58;100.00
70758;BME280;59316;52.964;7.102;2023-03-05T12:48:52;101337.19;;;8.88;100.00
70758;BME280;59316;52.964;7.102;2023-03-05T12:54:33;101342.03;;;8.15;100.00
70758;BME280;59316;52.964;7.102;2023-03-05T13:00:03;101341.78;;;7.77;100.00
70758;BME280;59316;52.964;7.102;2023-03-05T13:05:31;101336.06;;;8.33;100.00
70758;BME280;59316;52.964;7.102;2023-03-05T13:11:01;101323.00;;;9.32;100.00
70758;BME280;59316;52.964;7.102;2023-03-05T13:16:27;101303.69;;;9.17;100.00
70758;BME280;59316;52.964;7.102;2023-03-05T13:22:02;101318.00;;;9.27;100.00
70758;BME280;59316;52.964;7.102;2023-03-05T13:27:30;101302.13;;;8.94;100.00
70758;BME280;59316;52.964;7.102;2023-03-05T13:32:55;101299.31;;;8.79;100.00
70758;BME280;59316;52.964;7.102;2023-03-05T13:44:19;101287.03;;;9.38;100.00
70758;BME280;59316;52.964;7.102;2023-03-05T13:49:41;101280.47;;;8.92;100.00
70758;BME280;59316;52.964;7.102;2023-03-05T13:55:10;101282.25;;;9.29;100.00
70758;BME280;59316;52.964;7.102;2023-03-05T14:00:36;101277.16;;;9.26;100.00
70758;BME280;59316;52.964;7.102;2023-03-05T14:05:58;101269.56;;;9.02;100.00
70758;BME280;59316;52.964;7.102;2023-03-05T14:11:21;101261.38;;;9.10;100.00
70758;BME280;59316;52.964;7.102;2023-03-05T14:16:42;101246.09;;;8.83;100.00
70758;BME280;59316;52.964;7.102;2023-03-05T14:22:05;101250.09;;;8.52;100.00
70758;BME280;59316;52.964;7.102;2023-03-05T14:27:30;101235.38;;;8.70;100.00
70758;BME280;59316;52.964;7.102;2023-03-05T14:32:54;101229.09;;;9.13;100.00
70758;BME280;59316;52.964;7.102;2023-03-05T14:38:21;101221.34;;;8.73;100.00
70758;BME280;59316;52.964;7.102;2023-03-05T14:43:44;101205.19;;;8.46;100.00
70758;BME280;59316;52.964;7.102;2023-03-05T14:49:06;101201.31;;;8.54;100.00
70758;BME280;59316;52.964;7.102;2023-03-05T14:54:31;101203.19;;;8.13;100.00
70758;BME280;59316;52.964;7.102;2023-03-05T14:59:55;101191.03;;;7.50;100.00
70758;BME280;59316;52.964;7.102;2023-03-05T15:05:18;101194.88;;;7.41;100.00
70758;BME280;59316;52.964;7.102;2023-03-05T15:10:40;101192.50;;;7.98;100.00
70758;BME280;59316;52.964;7.102;2023-03-05T15:16:01;101185.53;;;8.19;100.00
70758;BME280;59316;52.964;7.102;2023-03-05T15:21:24;101174.78;;;7.86;100.00
70758;BME280;59316;52.964;7.102;2023-03-05T15:26:46;101166.44;;;7.57;100.00
70758;BME280;59316;52.964;7.102;2023-03-05T15:32:09;101160.09;;;7.64;100.00
70758;BME280;59316;52.964;7.102;2023-03-05T15:37:31;101164.03;;;7.94;100.00
70758;BME280;59316;52.964;7.102;2023-03-05T15:42:57;101152.38;;;7.61;100.00
70758;BME280;59316;52.964;7.102;2023-03-05T15:48:18;101150.59;;;7.20;100.00
70758;BME280;59316;52.964;7.102;2023-03-05T15:53:40;101145.88;;;6.86;100.00
70758;BME280;59316;52.964;7.102;2023-03-05T15:59:01;101141.28;;;6.70;100.00
70758;BME280;59316;52.964;7.102;2023-03-05T16:04:23;101135.13;;;6.73;100.00
70758;BME280;59316;52.964;7.102;2023-03-05T16:09:46;101130.91;;;6.70;100.00
70758;BME280;59316;52.964;7.102;2023-03-05T16:15:10;101130.44;;;6.61;100.00
70758;BME280;59316;52.964;7.102;2023-03-05T16:20:35;101124.78;;;6.49;100.00
70758;BME280;59316;52.964;7.102;2023-03-05T16:25:56;101115.28;;;6.48;100.00
70758;BME280;59316;52.964;7.102;2023-03-05T16:31:19;101107.63;;;6.45;100.00
70758;BME280;59316;52.964;7.102;2023-03-05T16:36:46;101114.06;;;6.35;100.00
70758;BME280;59316;52.964;7.102;2023-03-05T16:42:09;101105.25;;;6.15;100.00
70758;BME280;59316;52.964;7.102;2023-03-05T16:47:31;101101.81;;;5.91;100.00
70758;BME280;59316;52.964;7.102;2023-03-05T16:52:52;101107.34;;;5.82;100.00
70758;BME280;59316;52.964;7.102;2023-03-05T16:58:14;101097.56;;;5.65;100.00
70758;BME280;59316;52.964;7.102;2023-03-05T17:03:35;101091.91;;;5.53;100.00
70758;BME280;59316;52.964;7.102;2023-03-05T17:08:57;101092.44;;;5.38;100.00
70758;BME280;59316;52.964;7.102;2023-03-05T17:14:19;101088.97;;;5.12;100.00
70758;BME280;59316;52.964;7.102;2023-03-05T17:19:41;101091.13;;;4.71;100.00
70758;BME280;59316;52.964;7.102;2023-03-05T17:25:02;101092.78;;;4.45;100.00
70758;BME280;59316;52.964;7.102;2023-03-05T17:30:24;101088.72;;;4.36;100.00
70758;BME280;59316;52.964;7.102;2023-03-05T17:35:46;101084.94;;;4.18;100.00
70758;BME280;59316;52.964;7.102;2023-03-05T17:41:07;101088.94;;;3.99;100.00
70758;BME280;59316;52.964;7.102;2023-03-05T17:46:29;101069.34;;;3.90;100.00
70758;BME280;59316;52.964;7.102;2023-03-05T17:51:50;101083.09;;;3.92;100.00
70758;BME280;59316;52.964;7.102;2023-03-05T17:57:12;101077.16;;;3.88;100.00
70758;BME280;59316;52.964;7.102;2023-03-05T18:02:33;101069.31;;;3.91;100.00
70758;BME280;59316;52.964;7.102;2023-03-05T18:07:55;101069.91;;;4.01;100.00
70758;BME280;59316;52.964;7.102;2023-03-05T18:13:16;101058.34;;;3.83;100.00
70758;BME280;59316;52.964;7.102;2023-03-05T18:18:38;101061.69;;;3.87;100.00
70758;BME280;59316;52.964;7.102;2023-03-05T18:23:59;101047.59;;;3.97;100.00
70758;BME280;59316;52.964;7.102;2023-03-05T18:29:20;101059.06;;;3.88;100.00
70758;BME280;59316;52.964;7.102;2023-03-05T18:34:42;101046.13;;;3.88;100.00
70758;BME280;59316;52.964;7.102;2023-03-05T18:40:04;101040.78;;;3.93;100.00
70758;BME280;59316;52.964;7.102;2023-03-05T18:45:28;101040.53;;;4.02;100.00
70758;BME280;59316;52.964;7.102;2023-03-05T18:50:51;101028.59;;;3.96;100.00
70758;BME280;59316;52.964;7.102;2023-03-05T18:56:12;101028.06;;;3.87;100.00
70758;BME280;59316;52.964;7.102;2023-03-05T19:01:34;101019.53;;;3.83;100.00
70758;BME280;59316;52.964;7.102;2023-03-05T19:06:55;101012.69;;;3.80;100.00
70758;BME280;59316;52.964;7.102;2023-03-05T19:12:18;101011.06;;;3.76;100.00
70758;BME280;59316;52.964;7.102;2023-03-05T19:17:41;101010.72;;;3.59;100.00
70758;BME280;59316;52.964;7.102;2023-03-05T19:23:02;101002.09;;;3.27;100.00
70758;BME280;59316;52.964;7.102;2023-03-05T19:28:24;100995.78;;;3.04;100.00
70758;BME280;59316;52.964;7.102;2023-03-05T19:33:46;100990.28;;;2.84;100.00
70758;BME280;59316;52.964;7.102;2023-03-05T19:39:07;100984.53;;;2.72;100.00
70758;BME280;59316;52.964;7.102;2023-03-05T19:44:29;100973.28;;;2.75;100.00
70758;BME280;59316;52.964;7.102;2023-03-05T19:49:51;100971.03;;;2.61;100.00
70758;BME280;59316;52.964;7.102;2023-03-05T19:55:12;100955.41;;;2.67;100.00
70758;BME280;59316;52.964;7.102;2023-03-05T20:00:34;100948.72;;;2.58;100.00
70758;BME280;59316;52.964;7.102;2023-03-05T20:05:56;100947.91;;;2.58;100.00
70758;BME280;59316;52.964;7.102;2023-03-05T20:11:19;100947.03;;;2.57;100.00
70758;BME280;59316;52.964;7.102;2023-03-05T20:16:41;100918.47;;;2.63;100.00
70758;BME280;59316;52.964;7.102;2023-03-05T20:22:03;63551.88;;;25.67;100.00
70758;BME280;59316;52.964;7.102;2023-03-05T20:27:24;63551.88;;;-143.20;100.00
70758;BME280;59316;52.964;7.102;2023-03-05T20:32:46;63551.88;;;-143.20;100.00
70758;BME280;59316;52.964;7.102;2023-03-05T20:38:12;63551.88;;;-143.20;100.00
70758;BME280;59316;52.964;7.102;2023-03-05T20:43:47;63551.88;;;-143.20;100.00
70758;BME280;59316;52.964;7.102;2023-03-05T20:49:10;63551.88;;;-143.20;100.00
70758;BME280;59316;52.964;7.102;2023-03-05T20:54:31;63551.88;;;-143.20;100.00
70758;BME280;59316;52.964;7.102;2023-03-05T20:59:52;63551.88;;;-143.20;100.00
70758;BME280;59316;52.964;7.102;2023-03-05T21:05:14;63551.88;;;-143.20;100.00
70758;BME280;59316;52.964;7.102;2023-03-05T21:10:36;63551.88;;;25.67;100.00
70758;BME280;59316;52.964;7.102;2023-03-05T21:15:57;63551.88;;;-143.20;100.00
70758;BME280;59316;52.964;7.102;2023-03-05T21:21:19;63551.88;;;25.67;100.00
70758;BME280;59316;52.964;7.102;2023-03-05T21:26:40;63551.88;;;-143.20;100.00
70758;BME280;59316;52.964;7.102;2023-03-05T21:37:23;63551.88;;;-143.20;100.00
70758;BME280;59316;52.964;7.102;2023-03-05T21:42:45;63551.88;;;-143.20;100.00
70758;BME280;59316;52.964;7.102;2023-03-05T21:48:07;63551.88;;;25.67;100.00
70758;BME280;59316;52.964;7.102;2023-03-05T21:58:51;63551.88;;;25.67;100.00
70758;BME280;59316;52.964;7.102;2023-03-05T22:04:13;63551.88;;;36.24;100.00
70758;BME280;59316;52.964;7.102;2023-03-05T22:09:34;63551.88;;;67.94;100.00
70758;BME280;59316;52.964;7.102;2023-03-05T22:14:56;63551.88;;;194.85;100.00
70758;BME280;59316;52.964;7.102;2023-03-05T22:20:18;63551.88;;;-143.20;100.00
70758;BME280;59316;52.964;7.102;2023-03-05T22:25:40;63551.88;;;25.68;100.00
70758;BME280;59316;52.964;7.102;2023-03-05T22:31:02;63551.88;;;-143.20;100.00
70758;BME280;59316;52.964;7.102;2023-03-05T22:36:24;63551.88;;;25.67;100.00
70758;BME280;59316;52.964;7.102;2023-03-05T22:41:45;63551.88;;;110.22;100.00
70758;BME280;59316;52.964;7.102;2023-03-05T22:47:06;63551.88;;;-143.20;100.00
70758;BME280;59316;52.964;7.102;2023-03-05T22:52:27;63551.88;;;-143.20;100.00
70758;BME280;59316;52.964;7.102;2023-03-05T22:57:49;63551.88;;;-143.20;100.00
70758;BME280;59316;52.964;7.102;2023-03-05T23:03:10;63551.88;;;-143.20;100.00
70758;BME280;59316;52.964;7.102;2023-03-05T23:08:32;63551.88;;;-143.20;100.00
70758;BME280;59316;52.964;7.102;2023-03-05T23:13:53;63551.88;;;-143.20;100.00
70758;BME280;59316;52.964;7.102;2023-03-05T23:19:14;63551.88;;;-143.20;100.00
70758;BME280;59316;52.964;7.102;2023-03-05T23:24:36;63551.88;;;-143.20;100.00
70758;BME280;59316;52.964;7.102;2023-03-05T23:30:18;63551.88;;;-143.20;100.00
70758;BME280;59316;52.964;7.102;2023-03-05T23:35:47;63551.88;;;-143.20;100.00
70758;BME280;59316;52.964;7.102;2023-03-05T23:41:11;63551.88;;;-143.20;100.00
70758;BME280;59316;52.964;7.102;2023-03-05T23:46:32;63551.88;;;-143.20;100.00
70758;BME280;59316;52.964;7.102;2023-03-05T23:51:53;63551.88;;;-143.20;100.00
70758;BME280;59316;52.964;7.102;2023-03-05T23:57:15;63551.88;;;-143.20;100.00
